Spring Lake, NJ

11:03 AM EDT on September 04, 2015 (GMT -0400)
Spring Lake Heights | | Change Station
CLOSE
Current Station
Personal Weather Station
Location: Spring Lake, NJ
Elevation: 33 ft
Nearby Weather Stations

Elev 33 ft 40.14 °N, 74.05 °W | Updated 21 seconds ago

Mostly Cloudy
Mostly Cloudy
77.0 °F
Feels Like 78 °F
N
2.0
Wind Variable Wind from NW
Gusts 2.5 mph

Today
High -- | Low -- °F
--% Chance of Precip.
Yesterday
High -- | Low -- °F
Precip. -- in
6:26 AM 7:23 PM
Waning Gibbous, 59% visible
Pressure 30.07 in
Visibility 9.0 miles
Clouds Mostly Cloudy 1100 ft
Overcast 1600 ft
Heat Index 78 °F
Dew Point 72 °F
Humidity 85%
Rainfall 0.00 in
Snow Depth Not available.
UV 1.0 out of 12
Pollen 8.70 out of 12
Air Quality Not available.
Flu Activity Not available.
METAR KBLM 041455Z AUTO 07011G14KT 9SM BKN011 OVC016 24/19 A3007 RMK AO1 52024
Pressure 30.07 in
Visibility 9.0 miles
Clouds Mostly Cloudy 1100 ft
Overcast 1600 ft
Heat Index 78 °F
Dew Point 72 °F
Humidity 85%
Rainfall 0.00 in
Snow Depth Not available.
UV 1.0 out of 12
Pollen 8.70 out of 12
Air Quality Not available.
Flu Activity Not available.
METAR KBLM 041455Z AUTO 07011G14KT 9SM BKN011 OVC016 24/19 A3007 RMK AO1 52024

10-Day Weather Forecast

×

Almanac

Astronomy

Sep. 04, 2015 Rise Set
Actual Time
Civil Twilight
Nautical Twilight
Astronomical Twilight
Moon
Length of Visible Light
Length of Day
Tomorrow will be .
, % of the Moon is Illuminated

Today's Extremes

State Highs State Lows

Community

WunderPhotos

Upload Photos

1,852,187 photos uploaded!

WunderBlogs® & News

Nearby

Air Quality

  Air Quality AQ Index Pollutant
Not available.

Snow Depth

Station Depth Elevation

Earthquake Activity

City Distance Mag. Time & Date
Minimum magnitude displayed is 2.5.

Coastal Water Temperatures

Place Temperature

Stations

Nearby Weather Stations

Station Location Temp. Windchill Dew Point Humidity Wind Precip. Elev Updated Type